createdAt,value
2018-12-05T00:00:46.006Z,1021.50
2018-12-05T00:01:45.465Z,1021.60
2018-12-05T00:02:45.453Z,1021.52
2018-12-05T00:03:45.529Z,1021.46
2018-12-05T00:04:45.465Z,1021.55
2018-12-05T00:05:45.437Z,1021.45
2018-12-05T00:06:45.430Z,1021.50
2018-12-05T00:07:45.419Z,1021.54
2018-12-05T00:08:45.531Z,1021.47
2018-12-05T00:09:45.378Z,1021.47
2018-12-05T00:10:45.393Z,1021.48
2018-12-05T00:11:45.360Z,1021.49
2018-12-05T00:12:45.357Z,1021.47
2018-12-05T00:13:45.521Z,1021.44
2018-12-05T00:14:45.320Z,1021.47
2018-12-05T00:15:45.317Z,1021.46
2018-12-05T00:16:45.338Z,1021.42
2018-12-05T00:17:45.298Z,1021.40
2018-12-05T00:18:45.289Z,1021.35
2018-12-05T00:19:45.280Z,1021.30
2018-12-05T00:20:46.021Z,1021.37
2018-12-05T00:21:46.036Z,1021.41
2018-12-05T00:22:45.246Z,1021.40
2018-12-05T00:23:45.244Z,1021.45
2018-12-05T00:24:45.225Z,1021.45
2018-12-05T00:25:46.017Z,1021.46
2018-12-05T00:26:45.192Z,1021.43
2018-12-05T00:27:45.177Z,1021.49
2018-12-05T00:28:45.571Z,1021.45
2018-12-05T00:29:45.167Z,1021.43
2018-12-05T00:30:45.145Z,1021.44
2018-12-05T00:31:45.141Z,1021.49
2018-12-05T00:32:45.143Z,1021.43
2018-12-05T00:33:45.134Z,1021.39
2018-12-05T00:34:45.101Z,1021.43
2018-12-05T00:35:45.089Z,1021.38
2018-12-05T00:36:45.076Z,1021.37
2018-12-05T00:37:45.084Z,1021.42
2018-12-05T00:38:45.596Z,1021.39
2018-12-05T00:39:45.054Z,1021.46
2018-12-05T00:40:45.039Z,1021.45
2018-12-05T00:41:45.067Z,1021.45
2018-12-05T00:42:46.010Z,1021.45
2018-12-05T00:43:45.017Z,1021.41
2018-12-05T00:44:44.994Z,1021.42
2018-12-05T00:45:44.980Z,1021.51
2018-12-05T00:46:45.033Z,1021.48
2018-12-05T00:47:45.024Z,1021.50
2018-12-05T00:48:44.975Z,1021.47
2018-12-05T00:49:44.938Z,1021.45
2018-12-05T00:50:44.942Z,1021.43
2018-12-05T00:51:45.539Z,1021.45
2018-12-05T00:52:44.924Z,1021.42
2018-12-05T00:53:44.942Z,1021.45
2018-12-05T00:54:45.966Z,1021.44
2018-12-05T00:55:44.879Z,1021.43
2018-12-05T00:56:44.961Z,1021.42
2018-12-05T00:57:44.849Z,1021.37
2018-12-05T00:58:44.861Z,1021.40
2018-12-05T00:59:44.858Z,1021.33
2018-12-05T01:00:44.843Z,1021.37
2018-12-05T01:01:44.881Z,1021.32
2018-12-05T01:02:44.817Z,1021.27
2018-12-05T01:03:44.800Z,1021.29
2018-12-05T01:04:44.782Z,1021.20
2018-12-05T01:05:44.762Z,1021.17
2018-12-05T01:06:44.787Z,1021.04
2018-12-05T01:07:44.776Z,1021.01
2018-12-05T01:08:45.025Z,1021.02
2018-12-05T01:09:45.514Z,1020.87
2018-12-05T01:10:44.706Z,1020.97
2018-12-05T01:11:45.515Z,1020.93
2018-12-05T01:12:44.693Z,1020.93
2018-12-05T01:13:44.697Z,1020.96
2018-12-05T01:14:44.661Z,1021.00
2018-12-05T01:15:44.648Z,1021.05
2018-12-05T01:16:45.515Z,1021.08
2018-12-05T01:17:44.638Z,1021.08
2018-12-05T01:18:44.678Z,1021.12
2018-12-05T01:19:44.650Z,1021.18
2018-12-05T01:20:44.604Z,1021.15
2018-12-05T01:21:44.585Z,1021.07
2018-12-05T01:22:44.574Z,1021.09
2018-12-05T01:23:44.660Z,1021.09
2018-12-05T01:24:44.590Z,1021.07
2018-12-05T01:25:44.548Z,1021.12
2018-12-05T01:26:45.512Z,1021.13
2018-12-05T01:27:45.618Z,1021.17
2018-12-05T01:28:44.555Z,1021.20
2018-12-05T01:29:44.495Z,1021.13
2018-12-05T01:30:44.495Z,1021.23
2018-12-05T01:31:44.473Z,1021.19
2018-12-05T01:32:45.047Z,1021.20
2018-12-05T01:33:44.496Z,1021.20
2018-12-05T01:34:44.433Z,1021.21
2018-12-05T01:35:44.427Z,1021.23
2018-12-05T01:36:44.416Z,1021.21
2018-12-05T01:37:44.530Z,1021.16
2018-12-05T01:38:44.528Z,1021.16
2018-12-05T01:39:44.423Z,1021.14
2018-12-05T01:40:45.024Z,1021.10
2018-12-05T01:41:44.369Z,1021.11
2018-12-05T01:42:44.389Z,1021.13
2018-12-05T01:43:44.540Z,1021.14
2018-12-05T01:44:44.336Z,1021.17
2018-12-05T01:45:45.011Z,1021.20
2018-12-05T01:46:44.321Z,1021.12
2018-12-05T01:47:44.298Z,1021.13
2018-12-05T01:48:44.333Z,1021.20
2018-12-05T01:49:44.291Z,1021.17
2018-12-05T01:50:45.014Z,1021.18
2018-12-05T01:51:44.279Z,1021.14
2018-12-05T01:52:44.246Z,1021.18
2018-12-05T01:53:44.412Z,1021.17
2018-12-05T01:54:44.231Z,1021.13
2018-12-05T01:55:44.246Z,1021.19
2018-12-05T01:56:44.204Z,1021.20
2018-12-05T01:57:44.221Z,1021.21
2018-12-05T01:58:44.207Z,1021.21
2018-12-05T01:59:44.188Z,1021.18
2018-12-05T02:00:44.155Z,1021.17
2018-12-05T02:01:44.144Z,1021.21
2018-12-05T02:02:45.028Z,1021.27
2018-12-05T02:03:44.128Z,1021.24
2018-12-05T02:04:44.129Z,1021.27
2018-12-05T02:05:44.111Z,1021.31
2018-12-05T02:06:44.089Z,1021.27
2018-12-05T02:07:44.083Z,1021.31
2018-12-05T02:08:44.105Z,1021.32
2018-12-05T02:09:44.085Z,1021.38
2018-12-05T02:10:44.042Z,1021.34
2018-12-05T02:11:44.034Z,1021.34
2018-12-05T02:12:44.029Z,1021.31
2018-12-05T02:13:44.027Z,1021.24
2018-12-05T02:14:44.069Z,1021.34
2018-12-05T02:15:43.991Z,1021.33
2018-12-05T02:16:43.982Z,1021.34
2018-12-05T02:17:43.994Z,1021.31
2018-12-05T02:18:43.970Z,1021.28
2018-12-05T02:19:43.967Z,1021.26
2018-12-05T02:20:43.948Z,1021.25
2018-12-05T02:21:43.924Z,1021.29
2018-12-05T02:22:43.911Z,1021.21
2018-12-05T02:23:43.910Z,1021.22
2018-12-05T02:24:43.909Z,1021.20
2018-12-05T02:25:43.884Z,1021.20
2018-12-05T02:26:43.873Z,1021.21
2018-12-05T02:27:44.521Z,1021.23
2018-12-05T02:28:44.519Z,1021.24
2018-12-05T02:29:43.872Z,1021.19
2018-12-05T02:30:43.851Z,1021.21
2018-12-05T02:31:43.820Z,1021.24
2018-12-05T02:32:43.803Z,1021.17
2018-12-05T02:33:43.792Z,1021.22
2018-12-05T02:34:43.803Z,1021.18
2018-12-05T02:35:43.766Z,1021.18
2018-12-05T02:36:43.757Z,1021.08
2018-12-05T02:37:44.530Z,1021.16
2018-12-05T02:38:44.522Z,1021.14
2018-12-05T02:39:43.808Z,1021.09
2018-12-05T02:40:43.717Z,1021.08
2018-12-05T02:41:43.718Z,1021.11
2018-12-05T02:42:43.712Z,1021.11
2018-12-05T02:43:43.680Z,1021.11
2018-12-05T02:44:43.690Z,1021.07
2018-12-05T02:45:43.656Z,1021.03
2018-12-05T02:46:43.667Z,1021.02
2018-12-05T02:47:43.653Z,1021.05
2018-12-05T02:48:43.633Z,1021.08
2018-12-05T02:49:44.041Z,1021.09
2018-12-05T02:50:43.606Z,1021.04
2018-12-05T02:51:43.590Z,1021.09
2018-12-05T02:52:44.521Z,1021.06
2018-12-05T02:53:43.588Z,1021.04
2018-12-05T02:54:44.059Z,1021.08
2018-12-05T02:55:43.550Z,1021.05
2018-12-05T02:56:43.548Z,1021.09
2018-12-05T02:57:43.559Z,1021.10
2018-12-05T02:58:44.097Z,1021.07
2018-12-05T02:59:43.537Z,1021.02
2018-12-05T03:00:43.493Z,1021.06
2018-12-05T03:01:43.485Z,1020.94
2018-12-05T03:02:43.515Z,1020.95
2018-12-05T03:03:43.480Z,1021.02
2018-12-05T03:04:43.485Z,1020.92
2018-12-05T03:05:43.436Z,1020.95
2018-12-05T03:06:43.430Z,1020.95
2018-12-05T03:07:43.415Z,1020.92
2018-12-05T03:08:43.485Z,1020.81
2018-12-05T03:09:43.438Z,1020.86
2018-12-05T03:10:43.393Z,1020.90
2018-12-05T03:11:43.409Z,1020.86
2018-12-05T03:12:44.016Z,1020.86
2018-12-05T03:13:43.349Z,1020.84
2018-12-05T03:14:43.377Z,1020.91
2018-12-05T03:15:44.031Z,1020.90
2018-12-05T03:16:44.017Z,1020.91
2018-12-05T03:17:43.307Z,1020.97
2018-12-05T03:18:43.339Z,1020.99
2018-12-05T03:19:43.361Z,1020.97
2018-12-05T03:20:43.268Z,1020.99
2018-12-05T03:21:44.031Z,1020.86
2018-12-05T03:22:43.267Z,1020.86
2018-12-05T03:23:43.280Z,1020.80
2018-12-05T03:24:43.301Z,1020.83
2018-12-05T03:25:43.211Z,1020.79
2018-12-05T03:26:44.022Z,1020.78
2018-12-05T03:27:43.213Z,1020.80
2018-12-05T03:28:43.194Z,1020.76
2018-12-05T03:29:43.229Z,1020.81
2018-12-05T03:30:43.165Z,1020.77
2018-12-05T03:31:43.149Z,1020.75
2018-12-05T03:32:43.152Z,1020.73
2018-12-05T03:33:44.017Z,1020.75
2018-12-05T03:34:43.572Z,1020.70
2018-12-05T03:35:43.127Z,1020.71
2018-12-05T03:36:43.092Z,1020.70
2018-12-05T03:37:43.152Z,1020.68
2018-12-05T03:38:43.087Z,1020.69
2018-12-05T03:39:43.106Z,1020.67
2018-12-05T03:40:44.031Z,1020.62
2018-12-05T03:41:43.035Z,1020.70
2018-12-05T03:42:43.027Z,1020.70
2018-12-05T03:43:43.028Z,1020.66
2018-12-05T03:44:43.108Z,1020.71
2018-12-05T03:45:43.019Z,1020.70
2018-12-05T03:46:42.992Z,1020.71
2018-12-05T03:47:42.980Z,1020.64
2018-12-05T03:48:42.964Z,1020.66
2018-12-05T03:49:42.988Z,1020.69
2018-12-05T03:50:42.940Z,1020.69
2018-12-05T03:51:42.944Z,1020.64
2018-12-05T03:52:42.928Z,1020.68
2018-12-05T03:53:43.576Z,1020.69
2018-12-05T03:54:42.927Z,1020.69
2018-12-05T03:55:42.907Z,1020.70
2018-12-05T03:56:42.882Z,1020.69
2018-12-05T03:57:42.858Z,1020.66
2018-12-05T03:58:43.539Z,1020.71
2018-12-05T03:59:43.098Z,1020.67
2018-12-05T04:00:42.835Z,1020.70
2018-12-05T04:01:42.846Z,1020.72
2018-12-05T04:02:42.806Z,1020.72
2018-12-05T04:03:42.813Z,1020.74
2018-12-05T04:04:42.797Z,1020.69
2018-12-05T04:05:42.801Z,1020.72
2018-12-05T04:06:42.760Z,1020.71
2018-12-05T04:07:42.761Z,1020.74
2018-12-05T04:08:42.738Z,1020.65
2018-12-05T04:09:42.742Z,1020.70
2018-12-05T04:10:42.739Z,1020.67
2018-12-05T04:11:42.719Z,1020.68
2018-12-05T04:12:43.528Z,1020.72
2018-12-05T04:13:42.718Z,1020.69
2018-12-05T04:14:42.696Z,1020.65
2018-12-05T04:15:42.680Z,1020.71
2018-12-05T04:16:42.655Z,1020.70
2018-12-05T04:17:43.524Z,1020.67
2018-12-05T04:18:42.653Z,1020.70
2018-12-05T04:19:42.618Z,1020.69
2018-12-05T04:20:42.658Z,1020.69
2018-12-05T04:21:42.595Z,1020.71
2018-12-05T04:22:42.583Z,1020.68
2018-12-05T04:23:42.601Z,1020.68
2018-12-05T04:24:42.570Z,1020.72
2018-12-05T04:25:42.576Z,1020.64
2018-12-05T04:26:43.524Z,1020.64
2018-12-05T04:27:42.528Z,1020.71
2018-12-05T04:28:42.520Z,1020.71
2018-12-05T04:29:42.509Z,1020.70
2018-12-05T04:30:42.509Z,1020.75
2018-12-05T04:31:42.504Z,1020.75
2018-12-05T04:32:42.491Z,1020.75
2018-12-05T04:33:42.463Z,1020.77
2018-12-05T04:34:42.450Z,1020.74
2018-12-05T04:35:42.544Z,1020.77
2018-12-05T04:36:42.428Z,1020.71
2018-12-05T04:37:42.419Z,1020.76
2018-12-05T04:38:42.409Z,1020.75
2018-12-05T04:39:42.396Z,1020.76
2018-12-05T04:40:42.447Z,1020.76
2018-12-05T04:41:42.380Z,1020.68
2018-12-05T04:42:42.368Z,1020.75
2018-12-05T04:43:42.356Z,1020.73
2018-12-05T04:44:43.022Z,1020.77
2018-12-05T04:45:42.355Z,1020.74
2018-12-05T04:46:42.339Z,1020.74
2018-12-05T04:47:42.334Z,1020.78
2018-12-05T04:48:42.298Z,1020.69
2018-12-05T04:49:43.024Z,1020.78
2018-12-05T04:50:42.303Z,1020.82
2018-12-05T04:51:42.264Z,1020.83
2018-12-05T04:52:43.030Z,1020.78
2018-12-05T04:53:42.280Z,1020.79
2018-12-05T04:54:43.044Z,1020.80
2018-12-05T04:55:42.236Z,1020.74
2018-12-05T04:56:42.208Z,1020.79
2018-12-05T04:57:42.201Z,1020.69
2018-12-05T04:58:42.219Z,1020.65
2018-12-05T04:59:42.204Z,1020.71
2018-12-05T05:00:42.586Z,1020.71
2018-12-05T05:01:42.154Z,1020.64
2018-12-05T05:02:43.030Z,1020.64
2018-12-05T05:03:42.141Z,1020.71
2018-12-05T05:04:42.120Z,1020.65
2018-12-05T05:05:42.148Z,1020.70
2018-12-05T05:06:42.182Z,1020.71
2018-12-05T05:07:42.108Z,1020.73
2018-12-05T05:08:42.078Z,1020.71
2018-12-05T05:09:42.094Z,1020.70
2018-12-05T05:10:42.079Z,1020.59
2018-12-05T05:11:42.096Z,1020.58
2018-12-05T05:12:42.036Z,1020.55
2018-12-05T05:13:42.027Z,1020.50
2018-12-05T05:14:42.035Z,1020.47
2018-12-05T05:15:42.025Z,1020.42
2018-12-05T05:16:41.991Z,1020.42
2018-12-05T05:17:41.981Z,1020.45
2018-12-05T05:18:41.966Z,1020.49
2018-12-05T05:19:41.959Z,1020.48
2018-12-05T05:20:42.043Z,1020.53
2018-12-05T05:21:41.936Z,1020.52
2018-12-05T05:22:41.923Z,1020.47
2018-12-05T05:23:41.911Z,1020.41
2018-12-05T05:24:42.526Z,1020.34
2018-12-05T05:25:41.948Z,1020.48
2018-12-05T05:26:41.895Z,1020.40
2018-12-05T05:27:45.820Z,1020.44
2018-12-05T05:28:41.858Z,1020.51
2018-12-05T05:29:41.859Z,1020.46
2018-12-05T05:30:41.853Z,1020.48
2018-12-05T05:31:41.837Z,1020.56
2018-12-05T05:32:42.546Z,1020.49
2018-12-05T05:33:41.804Z,1020.50
2018-12-05T05:34:42.523Z,1020.54
2018-12-05T05:35:41.809Z,1020.56
2018-12-05T05:36:42.524Z,1020.49
2018-12-05T05:37:41.768Z,1020.51
2018-12-05T05:38:41.745Z,1020.51
2018-12-05T05:39:42.525Z,1020.44
2018-12-05T05:40:41.768Z,1020.45
2018-12-05T05:41:41.714Z,1020.40
2018-12-05T05:42:41.704Z,1020.41
2018-12-05T05:43:41.714Z,1020.38
2018-12-05T05:44:41.683Z,1020.42
2018-12-05T05:45:41.728Z,1020.32
2018-12-05T05:46:41.675Z,1020.35
2018-12-05T05:47:41.649Z,1020.39
2018-12-05T05:48:42.567Z,1020.41
2018-12-05T05:49:41.651Z,1020.38
2018-12-05T05:50:42.061Z,1020.41
2018-12-05T05:51:41.601Z,1020.43
2018-12-05T05:52:41.594Z,1020.43
2018-12-05T05:53:42.530Z,1020.46
2018-12-05T05:54:41.583Z,1020.47
2018-12-05T05:55:41.583Z,1020.47
2018-12-05T05:56:41.548Z,1020.46
2018-12-05T05:57:41.534Z,1020.41
2018-12-05T05:58:42.027Z,1020.51
2018-12-05T05:59:41.520Z,1020.53
2018-12-05T06:00:41.573Z,1020.52
2018-12-05T06:01:42.027Z,1020.51
2018-12-05T06:02:41.490Z,1020.53
2018-12-05T06:03:42.041Z,1020.41
2018-12-05T06:04:41.461Z,1020.47
2018-12-05T06:05:41.813Z,1020.52
2018-12-05T06:06:42.028Z,1020.48
2018-12-05T06:07:41.452Z,1020.47
2018-12-05T06:08:41.414Z,1020.53
2018-12-05T06:09:41.405Z,1020.52
2018-12-05T06:10:41.480Z,1020.53
2018-12-05T06:11:41.382Z,1020.50
2018-12-05T06:12:41.385Z,1020.53
2018-12-05T06:13:41.379Z,1020.50
2018-12-05T06:14:41.349Z,1020.53
2018-12-05T06:15:41.403Z,1020.54
2018-12-05T06:16:41.356Z,1020.50
2018-12-05T06:17:41.323Z,1020.48
2018-12-05T06:18:41.304Z,1020.48
2018-12-05T06:19:41.296Z,1020.49
2018-12-05T06:20:41.297Z,1020.52
2018-12-05T06:21:41.651Z,1020.42
2018-12-05T06:22:41.265Z,1020.46
2018-12-05T06:23:41.257Z,1020.45
2018-12-05T06:24:41.238Z,1020.45
2018-12-05T06:25:41.269Z,1020.44
2018-12-05T06:26:41.237Z,1020.42
2018-12-05T06:27:41.274Z,1020.44
2018-12-05T06:28:41.196Z,1020.44
2018-12-05T06:29:41.222Z,1020.43
2018-12-05T06:30:41.199Z,1020.43
2018-12-05T06:31:41.195Z,1020.49
2018-12-05T06:32:41.152Z,1020.49
2018-12-05T06:33:41.141Z,1020.52
2018-12-05T06:34:41.134Z,1020.50
2018-12-05T06:35:41.123Z,1020.48
2018-12-05T06:36:41.118Z,1020.47
2018-12-05T06:37:42.035Z,1020.46
2018-12-05T06:38:41.089Z,1020.52
2018-12-05T06:39:42.030Z,1020.44
2018-12-05T06:40:41.068Z,1020.44
2018-12-05T06:41:41.074Z,1020.41
2018-12-05T06:42:41.046Z,1020.40
2018-12-05T06:43:41.027Z,1020.41
2018-12-05T06:44:41.014Z,1020.48
2018-12-05T06:45:41.533Z,1020.45
2018-12-05T06:46:41.021Z,1020.42
2018-12-05T06:47:41.114Z,1020.43
2018-12-05T06:48:41.528Z,1020.44
2018-12-05T06:49:40.961Z,1020.33
2018-12-05T06:50:40.963Z,1020.43
2018-12-05T06:51:41.051Z,1020.43
2018-12-05T06:52:40.936Z,1020.41
2018-12-05T06:53:40.917Z,1020.28
2018-12-05T06:54:40.903Z,1020.35
2018-12-05T06:55:41.542Z,1020.32
2018-12-05T06:56:41.040Z,1020.31
2018-12-05T06:57:40.871Z,1020.34
2018-12-05T06:58:40.860Z,1020.30
2018-12-05T06:59:41.530Z,1020.37
2018-12-05T07:00:40.839Z,1020.40
2018-12-05T07:01:41.045Z,1020.38
2018-12-05T07:02:41.546Z,1020.38
2018-12-05T07:03:40.814Z,1020.45
2018-12-05T07:04:40.803Z,1020.47
2018-12-05T07:05:40.783Z,1020.51
2018-12-05T07:06:40.786Z,1020.53
2018-12-05T07:07:40.760Z,1020.44
2018-12-05T07:08:40.761Z,1020.51
2018-12-05T07:09:40.739Z,1020.49
2018-12-05T07:10:40.731Z,1020.52
2018-12-05T07:11:40.766Z,1020.49
2018-12-05T07:12:40.708Z,1020.50
2018-12-05T07:13:41.566Z,1020.54
2018-12-05T07:14:41.535Z,1020.54
2018-12-05T07:15:40.680Z,1020.55
2018-12-05T07:16:40.689Z,1020.55
2018-12-05T07:17:41.543Z,1020.52
2018-12-05T07:18:40.653Z,1020.51
2018-12-05T07:19:40.634Z,1020.52
2018-12-05T07:20:40.628Z,1020.46
2018-12-05T07:21:40.619Z,1020.46
2018-12-05T07:22:40.594Z,1020.48
2018-12-05T07:23:40.596Z,1020.42
2018-12-05T07:24:40.618Z,1020.52
2018-12-05T07:25:40.587Z,1020.51
2018-12-05T07:26:41.058Z,1020.53
2018-12-05T07:27:40.539Z,1020.47
2018-12-05T07:28:40.539Z,1020.56
2018-12-05T07:29:41.033Z,1020.49
2018-12-05T07:30:40.533Z,1020.51
2018-12-05T07:31:40.531Z,1020.52
2018-12-05T07:32:40.483Z,1020.46
2018-12-05T07:33:40.477Z,1020.43
2018-12-05T07:34:41.036Z,1020.46
2018-12-05T07:35:40.459Z,1020.40
2018-12-05T07:36:40.552Z,1020.38
2018-12-05T07:37:41.028Z,1020.40
2018-12-05T07:38:40.418Z,1020.30
2018-12-05T07:39:40.406Z,1020.33
2018-12-05T07:40:41.030Z,1020.33
2018-12-05T07:41:40.508Z,1020.32
2018-12-05T07:42:40.386Z,1020.23
2018-12-05T07:43:40.370Z,1020.27
2018-12-05T07:44:40.350Z,1020.27
2018-12-05T07:45:40.353Z,1020.23
2018-12-05T07:46:40.408Z,1020.20
2018-12-05T07:47:40.328Z,1020.27
2018-12-05T07:48:40.309Z,1020.27
2018-12-05T07:49:40.298Z,1020.19
2018-12-05T07:50:40.284Z,1020.29
2018-12-05T07:51:40.289Z,1020.27
2018-12-05T07:52:40.308Z,1020.24
2018-12-05T07:53:40.252Z,1020.29
2018-12-05T07:54:40.250Z,1020.28
2018-12-05T07:55:40.230Z,1020.23
2018-12-05T07:56:40.239Z,1020.21
2018-12-05T07:57:41.033Z,1020.18
2018-12-05T07:58:40.207Z,1020.13
2018-12-05T07:59:40.224Z,1020.15
2018-12-05T08:00:40.245Z,1020.12
2018-12-05T08:01:40.207Z,1020.12
2018-12-05T08:02:40.154Z,1020.08
2018-12-05T08:03:41.036Z,1020.12
2018-12-05T08:04:40.133Z,1020.13
2018-12-05T08:05:40.127Z,1020.11
2018-12-05T08:06:41.068Z,1020.13
2018-12-05T08:07:40.590Z,1020.16
2018-12-05T08:08:40.088Z,1020.14
2018-12-05T08:09:41.111Z,1020.14
2018-12-05T08:10:40.069Z,1020.12
2018-12-05T08:11:41.056Z,1020.08
2018-12-05T08:12:40.061Z,1020.10
2018-12-05T08:13:40.038Z,1020.10
2018-12-05T08:14:40.024Z,1020.09
2018-12-05T08:15:40.015Z,1020.09
2018-12-05T08:16:40.041Z,1020.06
2018-12-05T08:17:40.003Z,1020.06
2018-12-05T08:18:39.979Z,1019.97
2018-12-05T08:19:39.968Z,1019.92
2018-12-05T08:20:39.970Z,1019.91
2018-12-05T08:21:40.560Z,1019.96
2018-12-05T08:22:40.046Z,1019.89
2018-12-05T08:23:40.538Z,1019.87
2018-12-05T08:24:39.923Z,1019.84
2018-12-05T08:25:40.954Z,1019.85
2018-12-05T08:26:40.543Z,1019.82
2018-12-05T08:27:39.923Z,1019.83
2018-12-05T08:28:39.867Z,1019.86
2018-12-05T08:29:39.867Z,1019.86
2018-12-05T08:30:39.852Z,1019.91
2018-12-05T08:31:39.843Z,1019.88
2018-12-05T08:32:39.852Z,1019.82
2018-12-05T08:33:39.825Z,1019.92
2018-12-05T08:34:39.799Z,1019.81
2018-12-05T08:35:39.787Z,1019.83
2018-12-05T08:36:39.775Z,1019.84
2018-12-05T08:37:39.781Z,1019.82
2018-12-05T08:38:40.550Z,1019.81
2018-12-05T08:39:39.757Z,1019.81
2018-12-05T08:40:39.752Z,1019.80
2018-12-05T08:41:39.769Z,1019.78
2018-12-05T08:42:39.754Z,1019.76
2018-12-05T08:43:40.533Z,1019.82
2018-12-05T08:44:39.698Z,1019.81
2018-12-05T08:45:40.633Z,1019.78
2018-12-05T08:46:39.663Z,1019.77
2018-12-05T08:47:40.587Z,1019.78
2018-12-05T08:48:39.649Z,1019.78
2018-12-05T08:49:39.659Z,1019.73
2018-12-05T08:50:39.627Z,1019.80
2018-12-05T08:51:40.588Z,1019.75
2018-12-05T08:52:40.543Z,1019.75
2018-12-05T08:53:40.044Z,1019.81
2018-12-05T08:54:39.583Z,1019.78
2018-12-05T08:55:40.589Z,1019.77
2018-12-05T08:56:40.555Z,1019.85
2018-12-05T08:57:40.544Z,1019.82
2018-12-05T08:58:40.049Z,1019.81
2018-12-05T08:59:39.520Z,1019.81
2018-12-05T09:00:39.511Z,1019.84
2018-12-05T09:01:39.539Z,1019.78
2018-12-05T09:02:40.041Z,1019.75
2018-12-05T09:03:40.058Z,1019.70
2018-12-05T09:04:40.070Z,1019.76
2018-12-05T09:05:40.061Z,1019.65
2018-12-05T09:06:39.444Z,1019.69
2018-12-05T09:07:39.436Z,1019.64
2018-12-05T09:08:40.063Z,1019.69
2018-12-05T09:09:40.052Z,1019.66
2018-12-05T09:10:40.059Z,1019.67
2018-12-05T09:11:39.597Z,1019.67
2018-12-05T09:12:40.040Z,1019.67
2018-12-05T09:13:39.639Z,1019.66
2018-12-05T09:14:40.074Z,1019.65
2018-12-05T09:15:40.059Z,1019.59
2018-12-05T09:16:39.340Z,1019.64
2018-12-05T09:17:40.043Z,1019.53
2018-12-05T09:18:40.060Z,1019.55
2018-12-05T09:19:39.312Z,1019.54
2018-12-05T09:20:39.295Z,1019.54
2018-12-05T09:21:39.287Z,1019.50
2018-12-05T09:22:41.506Z,1019.47
2018-12-05T09:23:39.559Z,1019.42
2018-12-05T09:24:40.052Z,1019.42
2018-12-05T09:25:39.235Z,1019.43
2018-12-05T09:26:39.323Z,1019.41
2018-12-05T09:27:40.095Z,1019.47
2018-12-05T09:28:40.069Z,1019.51
2018-12-05T09:29:39.190Z,1019.46
2018-12-05T09:30:39.180Z,1019.50
2018-12-05T09:31:39.169Z,1019.49
2018-12-05T09:32:39.220Z,1019.44
2018-12-05T09:33:40.088Z,1019.37
2018-12-05T09:34:40.041Z,1019.41
2018-12-05T09:35:40.034Z,1019.43
2018-12-05T09:36:40.158Z,1019.44
2018-12-05T09:37:39.102Z,1019.43
2018-12-05T09:38:39.124Z,1019.33
2018-12-05T09:39:39.075Z,1019.34
2018-12-05T09:40:39.072Z,1019.38
2018-12-05T09:41:39.058Z,1019.27
2018-12-05T09:42:40.040Z,1019.34
2018-12-05T09:43:39.092Z,1019.41
2018-12-05T09:44:39.541Z,1019.37
2018-12-05T09:45:39.019Z,1019.39
2018-12-05T09:46:39.055Z,1019.41
2018-12-05T09:47:38.992Z,1019.44
2018-12-05T09:48:38.998Z,1019.52
2018-12-05T09:49:39.619Z,1019.43
2018-12-05T09:50:38.964Z,1019.36
2018-12-05T09:51:38.970Z,1019.29
2018-12-05T09:52:38.962Z,1019.32
2018-12-05T09:53:39.561Z,1019.31
2018-12-05T09:54:38.943Z,1019.18
2018-12-05T09:55:39.583Z,1019.21
2018-12-05T09:56:38.895Z,1019.25
2018-12-05T09:57:38.901Z,1019.20
2018-12-05T09:58:39.560Z,1019.21
2018-12-05T09:59:38.866Z,1019.22
2018-12-05T10:00:38.867Z,1019.22
2018-12-05T10:01:38.844Z,1019.29
2018-12-05T10:02:39.538Z,1019.19
2018-12-05T10:03:38.850Z,1019.22
2018-12-05T10:04:38.818Z,1019.24
2018-12-05T10:05:38.809Z,1019.20
2018-12-05T10:06:38.818Z,1019.23
2018-12-05T10:07:38.789Z,1019.20
2018-12-05T10:08:39.599Z,1019.13
2018-12-05T10:09:38.773Z,1019.14
2018-12-05T10:10:38.743Z,1019.17
2018-12-05T10:11:38.737Z,1019.18
2018-12-05T10:12:39.580Z,1019.14
2018-12-05T10:13:39.069Z,1019.13
2018-12-05T10:14:39.549Z,1019.04
2018-12-05T10:15:39.537Z,1019.08
2018-12-05T10:16:38.689Z,1019.08
2018-12-05T10:17:38.670Z,1019.09
2018-12-05T10:18:39.057Z,1019.11
2018-12-05T10:19:39.584Z,1019.11
2018-12-05T10:20:39.546Z,1019.08
2018-12-05T10:21:38.620Z,1019.04
2018-12-05T10:22:38.635Z,1018.97
2018-12-05T10:23:39.597Z,1019.01
2018-12-05T10:24:39.550Z,1018.96
2018-12-05T10:25:38.572Z,1018.99
2018-12-05T10:26:38.563Z,1018.94
2018-12-05T10:27:38.560Z,1018.79
2018-12-05T10:28:39.544Z,1018.91
2018-12-05T10:29:38.557Z,1018.85
2018-12-05T10:30:38.529Z,1018.86
2018-12-05T10:31:43.924Z,1018.84
2018-12-05T10:32:38.502Z,1018.78
2018-12-05T10:33:38.499Z,1018.80
2018-12-05T10:34:38.547Z,1018.84
2018-12-05T10:35:39.047Z,1018.89
2018-12-05T10:36:38.449Z,1018.83
2018-12-05T10:37:38.444Z,1018.79
2018-12-05T10:38:39.038Z,1018.73
2018-12-05T10:39:38.446Z,1018.73
2018-12-05T10:40:38.470Z,1018.77
2018-12-05T10:41:39.048Z,1018.71
2018-12-05T10:42:38.383Z,1018.67
2018-12-05T10:43:38.373Z,1018.69
2018-12-05T10:44:38.486Z,1018.56
2018-12-05T10:45:38.367Z,1018.60
2018-12-05T10:46:38.366Z,1018.58
2018-12-05T10:47:38.364Z,1018.53
2018-12-05T10:48:38.358Z,1018.50
2018-12-05T10:49:38.555Z,1018.55
2018-12-05T10:50:38.334Z,1018.54
2018-12-05T10:51:38.296Z,1018.47
2018-12-05T10:52:38.352Z,1018.50
2018-12-05T10:53:38.289Z,1018.45
2018-12-05T10:54:38.575Z,1018.48
2018-12-05T10:55:38.238Z,1018.35
2018-12-05T10:56:39.036Z,1018.40
2018-12-05T10:57:38.244Z,1018.39
2018-12-05T10:58:38.203Z,1018.33
2018-12-05T10:59:38.241Z,1018.40
2018-12-05T11:00:39.064Z,1018.34
2018-12-05T11:01:38.855Z,1018.30
2018-12-05T11:02:39.060Z,1018.35
2018-12-05T11:03:38.194Z,1018.30
2018-12-05T11:04:38.564Z,1018.30
2018-12-05T11:05:39.056Z,1018.25
2018-12-05T11:06:38.119Z,1018.29
2018-12-05T11:07:38.138Z,1018.25
2018-12-05T11:08:39.055Z,1018.22
2018-12-05T11:09:38.560Z,1018.20
2018-12-05T11:10:39.053Z,1018.10
2018-12-05T11:11:39.047Z,1018.15
2018-12-05T11:12:38.052Z,1018.05
2018-12-05T11:13:39.060Z,1018.08
2018-12-05T11:14:38.564Z,1018.09
2018-12-05T11:15:38.052Z,1018.00
2018-12-05T11:16:38.048Z,1017.91
2018-12-05T11:17:38.559Z,1018.00
2018-12-05T11:18:38.115Z,1017.98
2018-12-05T11:19:38.567Z,1018.00
2018-12-05T11:20:38.546Z,1018.04
2018-12-05T11:21:37.961Z,1017.98
2018-12-05T11:22:38.576Z,1018.05
2018-12-05T11:23:37.933Z,1018.01
2018-12-05T11:24:37.945Z,1018.04
2018-12-05T11:25:37.929Z,1018.01
2018-12-05T11:26:38.546Z,1018.00
2018-12-05T11:27:37.888Z,1018.00
2018-12-05T11:28:37.913Z,1018.07
2018-12-05T11:29:38.054Z,1018.00
2018-12-05T11:30:37.858Z,1017.94
2018-12-05T11:31:38.558Z,1017.99
2018-12-05T11:32:37.839Z,1018.03
2018-12-05T11:33:37.976Z,1017.98
2018-12-05T11:34:38.576Z,1017.96
2018-12-05T11:35:37.797Z,1017.92
2018-12-05T11:36:40.671Z,1017.86
2018-12-05T11:37:37.813Z,1017.87
2018-12-05T11:38:37.780Z,1017.91
2018-12-05T11:39:37.772Z,1017.89
2018-12-05T11:40:38.612Z,1017.93
2018-12-05T11:41:38.549Z,1017.95
2018-12-05T11:42:38.552Z,1017.88
2018-12-05T11:43:38.539Z,1017.81
2018-12-05T11:44:38.064Z,1017.68
2018-12-05T11:45:38.541Z,1017.68
2018-12-05T11:46:37.705Z,1017.69
2018-12-05T11:47:38.551Z,1017.71
2018-12-05T11:48:37.653Z,1017.71
2018-12-05T11:49:37.663Z,1017.72
2018-12-05T11:50:38.543Z,1017.72
2018-12-05T11:51:37.712Z,1017.71
2018-12-05T11:52:37.613Z,1017.68
2018-12-05T11:53:37.616Z,1017.61
2018-12-05T11:54:37.616Z,1017.63
2018-12-05T11:55:37.599Z,1017.61
2018-12-05T11:56:38.553Z,1017.58
2018-12-05T11:57:37.556Z,1017.56
2018-12-05T11:58:38.175Z,1017.55
2018-12-05T11:59:37.547Z,1017.47
2018-12-05T12:00:38.045Z,1017.47
2018-12-05T12:01:37.509Z,1017.48
2018-12-05T12:02:37.536Z,1017.46
2018-12-05T12:03:38.100Z,1017.47
2018-12-05T12:04:37.573Z,1017.47
2018-12-05T12:05:38.050Z,1017.46